createdAt,value
2023-01-05T00:01:36.375Z,1.50
2023-01-05T00:04:04.560Z,1.37
2023-01-05T00:06:32.560Z,1.23
2023-01-05T00:09:00.339Z,1.17
2023-01-05T00:11:46.125Z,1.30
2023-01-05T00:14:32.620Z,1.30
2023-01-05T00:17:19.199Z,1.83
2023-01-05T00:20:04.580Z,1.10
2023-01-05T00:22:35.143Z,1.30
2023-01-05T00:25:11.133Z,1.60
2023-01-05T00:27:40.283Z,1.60
2023-01-05T00:30:09.114Z,1.07
2023-01-05T00:32:38.056Z,1.47
2023-01-05T00:35:06.470Z,1.37
2023-01-05T00:37:35.227Z,1.10
2023-01-05T00:40:03.479Z,1.67
2023-01-05T00:42:31.093Z,1.17
2023-01-05T00:44:58.692Z,1.10
2023-01-05T00:47:26.272Z,1.50
2023-01-05T00:49:55.195Z,1.17
2023-01-05T00:52:22.710Z,1.30
2023-01-05T00:54:50.677Z,0.90
2023-01-05T00:57:18.336Z,0.93
2023-01-05T00:59:45.893Z,0.90
2023-01-05T01:02:13.786Z,0.80
2023-01-05T01:04:41.670Z,0.90
2023-01-05T01:07:10.546Z,1.10
2023-01-05T01:09:39.022Z,0.80
2023-01-05T01:12:06.587Z,0.90
2023-01-05T01:14:34.135Z,0.80
2023-01-05T01:17:01.743Z,0.80
2023-01-05T01:19:29.403Z,1.00
2023-01-05T01:21:56.891Z,1.33
2023-01-05T01:24:27.424Z,1.10
2023-01-05T01:26:55.169Z,1.33
2023-01-05T01:29:23.497Z,0.90
2023-01-05T01:31:52.681Z,0.80
2023-01-05T01:34:20.459Z,1.13
2023-01-05T01:36:48.334Z,0.90
2023-01-05T01:39:16.157Z,0.80
2023-01-05T01:41:45.142Z,1.07
2023-01-05T01:44:51.373Z,1.13
2023-01-05T01:47:23.590Z,1.20
2023-01-05T01:49:51.467Z,1.07
2023-01-05T01:52:19.528Z,1.23
2023-01-05T01:54:47.968Z,1.17
2023-01-05T01:57:17.139Z,0.60
2023-01-05T01:59:44.692Z,0.93
2023-01-05T02:02:14.009Z,0.90
2023-01-05T02:04:41.870Z,0.80
2023-01-05T02:07:11.403Z,0.97
2023-01-05T02:09:39.088Z,0.90
2023-01-05T02:12:12.947Z,1.00
2023-01-05T02:14:49.118Z,0.83
2023-01-05T02:17:25.827Z,0.90
2023-01-05T02:20:38.283Z,0.80
2023-01-05T02:23:31.728Z,0.73
2023-01-05T02:26:21.666Z,0.80
2023-01-05T02:29:10.468Z,0.93
2023-01-05T02:31:41.131Z,0.77
2023-01-05T02:34:15.849Z,0.63
2023-01-05T02:36:50.085Z,0.60
2023-01-05T02:39:19.457Z,0.83
2023-01-05T02:41:49.960Z,0.60
2023-01-05T02:44:18.827Z,0.60
2023-01-05T02:46:48.002Z,0.80
2023-01-05T02:49:16.430Z,0.60
2023-01-05T02:51:48.053Z,0.80
2023-01-05T02:54:19.106Z,0.90
2023-01-05T02:56:51.377Z,1.00
2023-01-05T02:59:20.842Z,0.90
2023-01-05T03:01:53.083Z,1.07
2023-01-05T03:04:23.486Z,2.93
2023-01-05T03:06:56.389Z,1.67
2023-01-05T03:09:26.083Z,1.50
2023-01-05T03:12:16.206Z,1.47
2023-01-05T03:14:46.436Z,1.87
2023-01-05T03:17:18.674Z,1.47
2023-01-05T03:19:47.029Z,1.53
2023-01-05T03:22:34.762Z,1.80
2023-01-05T03:25:20.437Z,1.93
2023-01-05T03:28:06.232Z,2.00
2023-01-05T03:30:57.600Z,3.00
2023-01-05T03:33:49.838Z,2.40
2023-01-05T03:36:19.675Z,1.73
2023-01-05T03:38:48.248Z,2.20
2023-01-05T03:41:17.046Z,2.30
2023-01-05T03:43:44.620Z,1.63
2023-01-05T03:46:15.262Z,1.17
2023-01-05T03:48:44.200Z,1.47
2023-01-05T03:51:11.747Z,1.07
2023-01-05T03:53:39.230Z,3.07
2023-01-05T03:56:07.266Z,1.40
2023-01-05T03:58:34.796Z,1.23
2023-01-05T04:01:02.390Z,1.13
2023-01-05T04:03:32.119Z,1.27
2023-01-05T04:06:01.648Z,1.30
2023-01-05T04:08:29.103Z,1.80
2023-01-05T04:10:57.110Z,1.10
2023-01-05T04:13:25.002Z,1.30
2023-01-05T04:15:52.518Z,1.80
2023-01-05T04:18:20.046Z,2.70
2023-01-05T04:20:47.508Z,1.93
2023-01-05T04:23:16.320Z,1.00
2023-01-05T04:25:43.809Z,2.00
2023-01-05T04:28:11.263Z,0.90
2023-01-05T04:30:38.753Z,1.10
2023-01-05T04:33:06.219Z,1.70
2023-01-05T04:35:33.714Z,2.13
2023-01-05T04:38:01.173Z,1.00
2023-01-05T04:40:30.033Z,2.20
2023-01-05T04:42:57.489Z,2.20
2023-01-05T04:45:24.969Z,2.00
2023-01-05T04:47:52.750Z,1.70
2023-01-05T04:50:20.341Z,1.00
2023-01-05T04:52:47.806Z,1.50
2023-01-05T04:55:15.343Z,1.40
2023-01-05T04:57:44.161Z,2.40
2023-01-05T05:00:12.201Z,1.67
2023-01-05T05:02:39.962Z,1.33
2023-01-05T05:05:07.910Z,1.27
2023-01-05T05:07:35.570Z,2.57
2023-01-05T05:10:03.450Z,1.37
2023-01-05T05:12:31.112Z,1.77
2023-01-05T05:14:59.942Z,1.30
2023-01-05T05:17:27.429Z,0.93
2023-01-05T05:19:54.880Z,1.40
2023-01-05T05:22:22.439Z,1.80
2023-01-05T05:24:49.906Z,2.03
2023-01-05T05:27:17.369Z,1.30
2023-01-05T05:29:44.837Z,1.30
2023-01-05T05:32:13.628Z,1.90
2023-01-05T05:34:41.160Z,1.47
2023-01-05T05:37:08.703Z,1.47
2023-01-05T05:39:36.178Z,1.93
2023-01-05T05:42:03.664Z,1.90
2023-01-05T05:44:31.139Z,2.80
2023-01-05T05:46:58.747Z,1.97
2023-01-05T05:49:27.542Z,1.50
2023-01-05T05:51:55.011Z,2.30
2023-01-05T05:54:22.489Z,1.03
2023-01-05T05:56:49.964Z,1.90
2023-01-05T05:59:17.466Z,1.43
2023-01-05T06:01:45.004Z,1.90
2023-01-05T06:04:12.620Z,1.43
2023-01-05T06:06:41.445Z,1.67
2023-01-05T06:09:08.882Z,1.60
2023-01-05T06:11:36.454Z,1.57
2023-01-05T06:14:04.449Z,1.30
2023-01-05T06:16:31.949Z,2.03
2023-01-05T06:18:59.476Z,1.50
2023-01-05T06:21:27.075Z,1.23
2023-01-05T06:23:55.915Z,1.40
2023-01-05T06:26:23.467Z,1.77
2023-01-05T06:28:50.994Z,2.30
2023-01-05T06:31:18.564Z,1.63
2023-01-05T06:33:46.080Z,1.67
2023-01-05T06:36:13.624Z,1.20
2023-01-05T06:38:41.149Z,1.20
2023-01-05T06:41:09.975Z,1.37
2023-01-05T06:43:37.555Z,1.43
2023-01-05T06:46:05.225Z,1.03
2023-01-05T06:48:32.701Z,1.87
2023-01-05T06:51:00.213Z,1.70
2023-01-05T06:53:27.749Z,1.87
2023-01-05T06:55:55.335Z,2.37
2023-01-05T06:58:24.447Z,1.07
2023-01-05T07:00:51.957Z,1.13
2023-01-05T07:03:19.431Z,1.57
2023-01-05T07:05:46.919Z,1.60
2023-01-05T07:08:14.425Z,1.40
2023-01-05T07:10:41.883Z,2.20
2023-01-05T07:13:09.419Z,1.13
2023-01-05T07:15:38.323Z,1.97
2023-01-05T07:18:05.852Z,1.30
2023-01-05T07:20:33.367Z,1.50
2023-01-05T07:23:00.862Z,1.83
2023-01-05T07:25:31.399Z,1.80
2023-01-05T07:27:59.120Z,1.80
2023-01-05T07:30:26.663Z,2.03
2023-01-05T07:32:58.769Z,2.30
2023-01-05T07:35:26.265Z,1.33
2023-01-05T07:37:53.770Z,1.77
2023-01-05T07:40:21.252Z,1.00
2023-01-05T07:42:51.530Z,1.10
2023-01-05T07:45:19.174Z,1.10
2023-01-05T07:47:46.700Z,1.53
2023-01-05T07:50:15.643Z,2.60
2023-01-05T07:52:43.124Z,1.13
2023-01-05T07:55:11.031Z,2.47
2023-01-05T07:57:38.509Z,1.23
2023-01-05T08:00:07.358Z,1.60
2023-01-05T08:02:36.179Z,1.60
2023-01-05T08:05:03.975Z,1.03
2023-01-05T08:07:32.850Z,1.30
2023-01-05T08:10:17.811Z,3.17
2023-01-05T08:12:59.227Z,1.47
2023-01-05T08:15:26.782Z,1.00
2023-01-05T08:17:54.288Z,1.37
2023-01-05T08:20:21.781Z,1.53
2023-01-05T08:22:52.601Z,1.40
2023-01-05T08:25:20.319Z,1.37
2023-01-05T08:27:48.474Z,0.90
2023-01-05T08:30:16.062Z,1.03
2023-01-05T08:32:43.762Z,1.47
2023-01-05T08:35:11.328Z,1.60
2023-01-05T08:37:39.535Z,1.10
2023-01-05T08:40:10.593Z,1.57
2023-01-05T08:42:38.067Z,1.83
2023-01-05T08:45:06.457Z,1.47
2023-01-05T08:47:33.924Z,1.43
2023-01-05T08:50:01.440Z,1.10
2023-01-05T08:52:28.921Z,1.30
2023-01-05T08:54:56.401Z,1.30
2023-01-05T08:57:25.193Z,1.57
2023-01-05T08:59:52.674Z,1.50
2023-01-05T09:02:25.568Z,1.53
2023-01-05T09:04:53.685Z,2.27
2023-01-05T09:07:22.309Z,2.10
2023-01-05T09:09:49.817Z,1.10
2023-01-05T09:12:17.333Z,1.40
2023-01-05T09:14:46.407Z,1.30
2023-01-05T09:17:13.933Z,1.37
2023-01-05T09:19:41.421Z,1.20
2023-01-05T09:22:08.934Z,1.27
2023-01-05T09:24:36.432Z,1.27
2023-01-05T09:27:05.469Z,1.80
2023-01-05T09:29:32.938Z,1.10
2023-01-05T09:32:01.765Z,1.47
2023-01-05T09:34:29.577Z,2.33
2023-01-05T09:36:57.056Z,1.87
2023-01-05T09:39:24.635Z,1.40
2023-01-05T09:41:54.031Z,1.70
2023-01-05T09:44:28.857Z,1.60
2023-01-05T09:46:58.151Z,1.43
2023-01-05T09:49:27.462Z,1.43
2023-01-05T09:51:59.004Z,1.40
2023-01-05T09:54:28.764Z,1.20
2023-01-05T09:57:12.353Z,1.43
2023-01-05T09:59:42.170Z,1.60
2023-01-05T10:02:17.987Z,1.20
2023-01-05T10:04:48.031Z,1.57
2023-01-05T10:07:20.784Z,2.60
2023-01-05T10:09:48.905Z,2.30
2023-01-05T10:12:42.783Z,2.27
2023-01-05T10:15:13.862Z,1.90
2023-01-05T10:17:43.736Z,1.67
2023-01-05T10:20:25.264Z,2.30
2023-01-05T10:23:00.873Z,1.20
2023-01-05T10:25:35.903Z,1.80
2023-01-05T10:28:15.478Z,1.47
2023-01-05T10:30:53.526Z,3.10
2023-01-05T10:33:38.914Z,1.20
2023-01-05T10:36:41.393Z,1.80
2023-01-05T10:39:19.636Z,1.70
2023-01-05T10:41:51.695Z,1.93
2023-01-05T10:44:36.185Z,1.80
2023-01-05T10:47:04.011Z,1.67
2023-01-05T10:49:32.439Z,1.87
2023-01-05T10:52:02.408Z,2.43
2023-01-05T10:54:37.074Z,1.70
2023-01-05T10:57:36.276Z,1.50
2023-01-05T11:00:09.111Z,1.77
2023-01-05T11:02:38.387Z,2.10
2023-01-05T11:05:08.480Z,1.50
2023-01-05T11:07:48.160Z,1.73
2023-01-05T11:10:24.290Z,2.00
2023-01-05T11:12:53.396Z,1.70
2023-01-05T11:15:21.684Z,1.67
2023-01-05T11:17:49.326Z,1.77
2023-01-05T11:20:17.967Z,2.13
2023-01-05T11:22:48.326Z,2.30
2023-01-05T11:25:21.199Z,2.20
2023-01-05T11:28:05.932Z,3.17
2023-01-05T11:30:33.908Z,2.70
2023-01-05T11:33:01.670Z,1.60
2023-01-05T11:35:32.640Z,1.93
2023-01-05T11:38:02.035Z,2.00
2023-01-05T11:40:31.610Z,2.50
2023-01-05T11:43:00.127Z,2.90
2023-01-05T11:45:29.216Z,1.63
2023-01-05T11:47:58.586Z,1.80
2023-01-05T11:50:27.872Z,2.07
2023-01-05T11:52:56.624Z,2.10
2023-01-05T11:55:31.016Z,1.70
2023-01-05T11:58:17.575Z,2.07
2023-01-05T12:01:08.309Z,1.90
2023-01-05T12:03:52.851Z,2.90
2023-01-05T12:06:31.791Z,2.67
2023-01-05T12:09:03.408Z,2.20
2023-01-05T12:11:37.489Z,1.10
2023-01-05T12:14:13.995Z,1.90
2023-01-05T12:16:47.122Z,1.80
2023-01-05T12:19:37.330Z,2.33
2023-01-05T12:22:24.621Z,2.43
2023-01-05T12:25:02.745Z,2.80
2023-01-05T12:27:47.346Z,1.43
2023-01-05T12:32:07.221Z,2.50
2023-01-05T12:36:22.492Z,1.63
2023-01-05T12:39:00.258Z,2.30
2023-01-05T12:41:51.576Z,2.27
2023-01-05T12:44:34.388Z,2.07
2023-01-05T12:47:13.643Z,2.00
2023-01-05T12:49:45.319Z,1.53
2023-01-05T12:52:16.338Z,1.80
2023-01-05T12:54:48.300Z,3.03
2023-01-05T12:57:18.985Z,2.60
2023-01-05T12:59:54.030Z,2.23
2023-01-05T13:02:29.367Z,1.40
2023-01-05T13:05:00.787Z,2.37
2023-01-05T13:07:33.586Z,1.80
2023-01-05T13:10:03.899Z,2.00
2023-01-05T13:12:32.950Z,1.10
2023-01-05T13:15:13.097Z,2.10
2023-01-05T13:17:44.026Z,1.80
2023-01-05T13:20:23.245Z,4.50
2023-01-05T13:22:52.638Z,1.97
2023-01-05T13:25:22.053Z,2.70
2023-01-05T13:27:49.531Z,2.90
2023-01-05T13:30:23.440Z,2.13
2023-01-05T13:33:01.828Z,2.53
2023-01-05T13:35:46.102Z,2.50
2023-01-05T13:38:32.991Z,2.37
2023-01-05T13:41:15.093Z,3.00
2023-01-05T13:44:04.773Z,2.17
2023-01-05T13:46:43.065Z,1.73
2023-01-05T13:49:23.801Z,2.30
2023-01-05T13:51:54.779Z,2.07
2023-01-05T13:54:43.634Z,1.60
2023-01-05T13:57:21.810Z,2.97
2023-01-05T14:00:00.773Z,3.20
2023-01-05T14:02:38.566Z,1.80
2023-01-05T14:05:08.005Z,1.63
2023-01-05T14:07:40.483Z,1.73
2023-01-05T14:10:21.221Z,2.60
2023-01-05T14:12:50.103Z,2.30
2023-01-05T14:15:36.422Z,1.40
2023-01-05T14:18:05.846Z,1.83
2023-01-05T14:20:37.144Z,2.13
2023-01-05T14:23:45.621Z,2.53
2023-01-05T14:26:14.474Z,1.63
2023-01-05T14:28:49.030Z,2.10
2023-01-05T14:31:36.808Z,1.87
2023-01-05T14:34:07.507Z,2.03
2023-01-05T14:36:37.656Z,1.67
2023-01-05T14:39:07.809Z,2.13
2023-01-05T14:41:36.860Z,1.10
2023-01-05T14:44:06.267Z,2.30
2023-01-05T14:46:46.654Z,2.73
2023-01-05T14:49:21.101Z,2.13
2023-01-05T14:51:54.331Z,1.77
2023-01-05T14:54:37.085Z,2.30
2023-01-05T14:57:35.808Z,2.30
2023-01-05T15:00:08.501Z,2.80
2023-01-05T15:02:45.831Z,3.20
2023-01-05T15:05:17.247Z,1.60
2023-01-05T15:07:50.277Z,1.87
2023-01-05T15:10:24.439Z,1.77
2023-01-05T15:15:48.054Z,3.10
2023-01-05T15:18:55.156Z,1.63
2023-01-05T15:21:37.686Z,2.50
2023-01-05T15:24:34.387Z,2.20
2023-01-05T15:27:28.120Z,2.17
2023-01-05T15:30:10.102Z,2.70
2023-01-05T15:32:41.691Z,2.37
2023-01-05T15:35:15.174Z,2.17
2023-01-05T15:37:47.205Z,1.83
2023-01-05T15:40:29.189Z,2.70
2023-01-05T15:42:58.785Z,1.87
2023-01-05T15:45:29.805Z,2.00
2023-01-05T15:48:00.410Z,4.50
2023-01-05T15:50:32.615Z,1.63
2023-01-05T15:53:01.846Z,2.40
2023-01-05T15:55:30.814Z,2.30
2023-01-05T15:58:00.479Z,2.70
2023-01-05T16:00:31.059Z,2.60
2023-01-05T16:02:58.850Z,3.00
2023-01-05T16:05:28.012Z,3.27
2023-01-05T16:07:57.735Z,2.60
2023-01-05T16:10:29.840Z,1.77
2023-01-05T16:13:00.851Z,1.53
2023-01-05T16:15:33.223Z,1.90
2023-01-05T16:18:00.990Z,2.60
2023-01-05T16:20:30.854Z,1.77
2023-01-05T16:23:08.398Z,1.97
2023-01-05T16:25:40.805Z,2.90
2023-01-05T16:28:17.068Z,2.33
2023-01-05T16:30:47.115Z,2.37
2023-01-05T16:33:27.327Z,1.80
2023-01-05T16:36:08.434Z,1.70
2023-01-05T16:38:36.064Z,2.30
2023-01-05T16:41:10.065Z,3.40
2023-01-05T16:43:43.550Z,2.67
2023-01-05T16:46:36.316Z,2.70
2023-01-05T16:49:37.338Z,1.77
2023-01-05T16:52:08.780Z,3.60
2023-01-05T16:54:39.401Z,3.33
2023-01-05T16:57:30.959Z,2.80
2023-01-05T16:59:58.902Z,2.83
2023-01-05T17:02:45.118Z,2.33
2023-01-05T17:05:15.533Z,2.37
2023-01-05T17:07:44.407Z,2.50
2023-01-05T17:10:23.495Z,3.27
2023-01-05T17:13:01.312Z,5.00
2023-01-05T17:15:32.782Z,1.87
2023-01-05T17:18:02.146Z,3.13
2023-01-05T17:20:36.229Z,4.90
2023-01-05T17:23:04.078Z,3.00
2023-01-05T17:25:34.207Z,2.30
2023-01-05T17:28:01.696Z,4.73
2023-01-05T17:30:29.261Z,2.83
2023-01-05T17:32:56.828Z,3.00
2023-01-05T17:35:25.683Z,2.70
2023-01-05T17:37:53.194Z,5.30
2023-01-05T17:40:21.900Z,4.07
2023-01-05T17:42:49.480Z,4.30
2023-01-05T17:45:18.773Z,2.80
2023-01-05T17:47:47.157Z,3.40
2023-01-05T17:50:16.657Z,3.63
2023-01-05T17:52:45.486Z,5.97
2023-01-05T17:55:13.660Z,3.60
2023-01-05T17:57:42.284Z,3.27
2023-01-05T18:00:13.246Z,2.90
2023-01-05T18:02:41.283Z,4.13
2023-01-05T18:05:10.397Z,2.70
2023-01-05T18:07:38.747Z,4.03
2023-01-05T18:10:10.021Z,3.30
2023-01-05T18:12:37.885Z,4.60
2023-01-05T18:15:06.388Z,2.90
2023-01-05T18:20:08.058Z,3.27
2023-01-05T18:22:35.928Z,2.23
2023-01-05T18:25:03.666Z,2.87
2023-01-05T18:27:35.394Z,3.70
2023-01-05T18:30:03.419Z,2.93
2023-01-05T18:35:07.329Z,1.97
2023-01-05T18:37:38.042Z,3.00
2023-01-05T18:40:07.029Z,3.10
2023-01-05T18:42:36.524Z,3.40
2023-01-05T18:45:13.840Z,2.33
2023-01-05T18:47:47.625Z,3.47
2023-01-05T18:50:15.538Z,3.13
2023-01-05T18:52:46.612Z,3.03
2023-01-05T18:55:14.241Z,4.27
2023-01-05T18:57:43.373Z,3.10
2023-01-05T19:00:12.284Z,3.10
2023-01-05T19:02:40.762Z,3.00
2023-01-05T19:05:08.986Z,2.83
2023-01-05T19:07:38.065Z,3.50
2023-01-05T19:10:06.110Z,2.87
2023-01-05T19:12:33.772Z,3.80
2023-01-05T19:15:02.732Z,3.10
2023-01-05T19:17:33.446Z,2.70
2023-01-05T19:20:01.001Z,3.00
2023-01-05T19:22:28.861Z,2.93
2023-01-05T19:24:56.963Z,2.10
2023-01-05T19:27:24.588Z,1.77
2023-01-05T19:29:52.122Z,2.03
2023-01-05T19:32:21.005Z,3.10
2023-01-05T19:34:48.661Z,3.10
2023-01-05T19:37:16.432Z,2.30
2023-01-05T19:39:44.152Z,2.57
2023-01-05T19:42:11.809Z,2.10
2023-01-05T19:44:39.462Z,2.27
2023-01-05T19:47:07.196Z,3.27
2023-01-05T19:49:36.410Z,2.73
2023-01-05T19:52:04.050Z,2.83
2023-01-05T19:54:31.677Z,2.70
2023-01-05T19:56:59.330Z,2.60
2023-01-05T19:59:33.101Z,3.37
2023-01-05T20:02:01.689Z,2.23
2023-01-05T20:04:29.335Z,2.87
2023-01-05T20:06:58.679Z,2.70
2023-01-05T20:09:26.615Z,3.80
2023-01-05T20:12:02.639Z,3.13
2023-01-05T20:14:31.821Z,2.63
2023-01-05T20:17:01.647Z,3.07
2023-01-05T20:19:31.749Z,1.90
2023-01-05T20:22:01.922Z,2.10
2023-01-05T20:24:31.096Z,2.90
2023-01-05T20:27:00.618Z,3.40
2023-01-05T20:29:29.177Z,3.80
2023-01-05T20:32:00.153Z,3.07
2023-01-05T20:34:31.982Z,2.00
2023-01-05T20:37:01.768Z,2.30
2023-01-05T20:39:29.359Z,2.40
2023-01-05T20:41:57.003Z,2.37
2023-01-05T20:44:26.857Z,3.23
2023-01-05T20:46:57.203Z,3.57
2023-01-05T20:49:26.142Z,3.23
2023-01-05T20:51:54.061Z,2.20
2023-01-05T20:54:26.152Z,2.43
2023-01-05T20:56:53.965Z,2.50
2023-01-05T20:59:24.760Z,2.30
2023-01-05T21:01:52.905Z,3.13
2023-01-05T21:04:21.050Z,2.17
2023-01-05T21:06:48.820Z,3.17
2023-01-05T21:09:16.505Z,3.00
2023-01-05T21:11:46.493Z,2.13
2023-01-05T21:14:14.799Z,3.00
2023-01-05T21:16:48.360Z,2.40
2023-01-05T21:19:18.710Z,2.33
2023-01-05T21:21:47.472Z,3.00
2023-01-05T21:24:15.831Z,2.37
2023-01-05T21:26:45.347Z,2.80
2023-01-05T21:29:14.114Z,2.90
2023-01-05T21:31:41.804Z,3.77
2023-01-05T21:34:11.418Z,2.83
2023-01-05T21:36:41.318Z,2.73
2023-01-05T21:39:09.925Z,2.70
2023-01-05T21:41:55.935Z,4.47
2023-01-05T21:44:25.102Z,3.47
2023-01-05T21:46:52.729Z,3.40
2023-01-05T21:49:20.853Z,3.13
2023-01-05T21:52:06.110Z,3.60
2023-01-05T21:54:54.588Z,2.60
2023-01-05T21:57:22.168Z,2.70
2023-01-05T21:59:51.263Z,2.97
2023-01-05T22:02:18.927Z,4.37
2023-01-05T22:04:46.957Z,3.90
2023-01-05T22:07:14.598Z,2.80
2023-01-05T22:09:42.162Z,2.50
2023-01-05T22:12:10.193Z,3.20
2023-01-05T22:14:38.070Z,4.17
2023-01-05T22:17:08.294Z,2.50
2023-01-05T22:19:35.957Z,3.27
2023-01-05T22:22:03.945Z,2.53
2023-01-05T22:24:31.563Z,3.33
2023-01-05T22:26:59.338Z,2.77
2023-01-05T22:29:27.006Z,3.27
2023-01-05T22:31:54.785Z,2.00
2023-01-05T22:34:23.793Z,2.40
2023-01-05T22:36:51.536Z,2.03
2023-01-05T22:39:19.160Z,3.97
2023-01-05T22:41:47.315Z,2.87
2023-01-05T22:44:14.882Z,2.80
2023-01-05T22:46:42.649Z,3.20
2023-01-05T22:49:13.236Z,2.13
2023-01-05T22:51:42.584Z,2.87
2023-01-05T22:54:10.232Z,2.73
2023-01-05T22:56:38.014Z,2.63
2023-01-05T22:59:05.912Z,2.77
2023-01-05T23:01:35.078Z,3.10
2023-01-05T23:04:04.900Z,3.00
2023-01-05T23:06:32.701Z,3.13
2023-01-05T23:09:02.339Z,2.63
2023-01-05T23:11:31.843Z,2.30
2023-01-05T23:14:00.737Z,2.53
2023-01-05T23:16:29.023Z,2.90
2023-01-05T23:18:56.944Z,2.67
2023-01-05T23:21:27.041Z,2.83
2023-01-05T23:23:56.093Z,4.10
2023-01-05T23:26:26.688Z,3.30
2023-01-05T23:28:55.141Z,3.03
2023-01-05T23:31:23.128Z,2.40
2023-01-05T23:33:50.800Z,2.60
2023-01-05T23:36:19.766Z,3.60
2023-01-05T23:38:47.666Z,2.97
2023-01-05T23:41:16.296Z,4.67
2023-01-05T23:43:46.084Z,3.00
2023-01-05T23:46:16.332Z,2.63
2023-01-05T23:48:44.621Z,2.80
2023-01-05T23:51:14.370Z,2.40
2023-01-05T23:53:42.393Z,2.57
2023-01-05T23:56:12.392Z,3.93
2023-01-05T23:58:40.384Z,2.60
